createdAt,value
2017-04-14T00:00:59.083Z,14.94
2017-04-14T00:02:09.109Z,14.95
2017-04-14T00:03:19.458Z,14.94
2017-04-14T00:04:29.491Z,15.01
2017-04-14T00:05:39.826Z,15
2017-04-14T00:06:50.164Z,15.02
2017-04-14T00:08:00.489Z,15.04
2017-04-14T00:09:10.821Z,14.89
2017-04-14T00:10:21.164Z,14.85
2017-04-14T00:11:31.509Z,14.93
2017-04-14T00:12:41.847Z,14.9
2017-04-14T00:13:52.201Z,14.89
2017-04-14T00:15:02.239Z,14.9
2017-04-14T00:16:12.581Z,14.87
2017-04-14T00:17:22.305Z,14.89
2017-04-14T00:18:32.330Z,14.87
2017-04-14T00:19:42.046Z,14.89
2017-04-14T00:20:52.616Z,15
2017-04-14T00:22:02.944Z,14.86
2017-04-14T00:23:13.021Z,14.85
2017-04-14T00:24:23.364Z,14.94
2017-04-14T00:25:33.727Z,14.89
2017-04-14T00:26:43.746Z,14.94
2017-04-14T00:27:53.776Z,14.85
2017-04-14T00:29:04.113Z,14.93
2017-04-14T00:30:14.147Z,14.86
2017-04-14T00:31:24.171Z,14.79
2017-04-14T00:32:34.517Z,14.85
2017-04-14T00:33:44.545Z,14.75
2017-04-14T00:34:54.879Z,14.77
2017-04-14T00:36:05.269Z,14.9
2017-04-14T00:37:15.294Z,14.83
2017-04-14T00:38:25.339Z,14.82
2017-04-14T00:39:35.669Z,14.77
2017-04-14T00:40:46.002Z,14.77
2017-04-14T00:41:55.742Z,14.77
2017-04-14T00:43:06.069Z,14.79
2017-04-14T00:44:16.408Z,14.85
2017-04-14T00:45:26.752Z,14.94
2017-04-14T00:46:37.075Z,14.86
2017-04-14T00:47:46.779Z,14.9
2017-04-14T00:48:56.800Z,14.86
2017-04-14T00:50:07.151Z,14.85
2017-04-14T00:51:16.872Z,14.89
2017-04-14T00:52:27.213Z,14.77
2017-04-14T00:53:37.557Z,14.86
2017-04-14T00:54:47.579Z,14.89
2017-04-14T00:55:57.604Z,14.89
2017-04-14T00:57:07.950Z,14.93
2017-04-14T00:58:17.970Z,14.89
2017-04-14T00:59:28.002Z,14.9
2017-04-14T01:00:38.335Z,14.75
2017-04-14T01:01:48.363Z,14.74
2017-04-14T01:02:58.698Z,14.71
2017-04-14T01:04:08.719Z,14.64
2017-04-14T01:05:18.747Z,14.66
2017-04-14T01:06:29.079Z,14.57
2017-04-14T01:07:39.116Z,14.6
2017-04-14T01:08:49.171Z,14.57
2017-04-14T01:09:59.550Z,14.56
2017-04-14T01:11:09.247Z,14.49
2017-04-14T01:12:19.578Z,14.45
2017-04-14T01:13:29.611Z,14.39
2017-04-14T01:14:39.949Z,14.42
2017-04-14T01:15:49.969Z,14.34
2017-04-14T01:16:59.985Z,14.34
2017-04-14T01:18:10.003Z,14.28
2017-04-14T01:19:20.363Z,14.34
2017-04-14T01:20:30.693Z,14.31
2017-04-14T01:21:41.018Z,14.31
2017-04-14T01:22:51.370Z,14.41
2017-04-14T01:24:01.700Z,14.36
2017-04-14T01:25:12.037Z,14.39
2017-04-14T01:26:22.056Z,14.42
2017-04-14T01:27:32.078Z,14.45
2017-04-14T01:28:42.424Z,14.49
2017-04-14T01:29:52.760Z,14.46
2017-04-14T01:31:02.843Z,14.49
2017-04-14T01:32:13.183Z,14.51
2017-04-14T01:33:23.531Z,14.49
2017-04-14T01:34:33.548Z,14.51
2017-04-14T01:35:43.924Z,14.49
2017-04-14T01:36:54.291Z,14.44
2017-04-14T01:38:04.631Z,14.46
2017-04-14T01:39:14.659Z,14.48
2017-04-14T01:40:25.239Z,14.49
2017-04-14T01:41:35.566Z,14.49
2017-04-14T01:42:45.623Z,14.56
2017-04-14T01:43:55.965Z,14.53
2017-04-14T01:45:06.287Z,14.57
2017-04-14T01:46:16.619Z,14.48
2017-04-14T01:47:26.980Z,14.59
2017-04-14T01:48:37.326Z,14.63
2017-04-14T01:49:47.666Z,14.67
2017-04-14T01:50:57.690Z,14.52
2017-04-14T01:52:08.017Z,14.6
2017-04-14T01:53:18.350Z,14.6
2017-04-14T01:54:28.068Z,14.6
2017-04-14T01:55:38.406Z,14.46
2017-04-14T01:56:48.744Z,14.52
2017-04-14T01:57:58.751Z,14.52
2017-04-14T01:59:09.101Z,14.46
2017-04-14T02:00:19.136Z,14.51
2017-04-14T02:01:28.852Z,14.48
2017-04-14T02:02:39.178Z,14.45
2017-04-14T02:03:49.513Z,14.41
2017-04-14T02:04:59.852Z,14.39
2017-04-14T02:06:09.871Z,14.31
2017-04-14T02:07:20.194Z,14.27
2017-04-14T02:08:30.526Z,14.27
2017-04-14T02:09:40.876Z,14.42
2017-04-14T02:10:51.207Z,14.39
2017-04-14T02:12:01.536Z,14.41
2017-04-14T02:13:11.865Z,14.44
2017-04-14T02:14:21.893Z,14.44
2017-04-14T02:15:32.223Z,14.39
2017-04-14T02:16:42.550Z,14.33
2017-04-14T02:17:52.889Z,14.33
2017-04-14T02:19:03.227Z,14.33
2017-04-14T02:20:13.562Z,14.3
2017-04-14T02:21:24.186Z,14.34
2017-04-14T02:22:34.518Z,14.39
2017-04-14T02:23:44.853Z,14.27
2017-04-14T02:24:55.184Z,14.27
2017-04-14T02:26:05.520Z,14.45
2017-04-14T02:27:15.895Z,14.44
2017-04-14T02:28:26.233Z,14.38
2017-04-14T02:29:36.261Z,14.27
2017-04-14T02:30:46.277Z,14.38
2017-04-14T02:31:56.626Z,14.39
2017-04-14T02:33:06.340Z,14.31
2017-04-14T02:34:16.678Z,14.42
2017-04-14T02:35:26.390Z,14.39
2017-04-14T02:36:36.418Z,14.41
2017-04-14T02:37:46.743Z,14.39
2017-04-14T02:38:57.126Z,14.39
2017-04-14T02:40:07.143Z,14.39
2017-04-14T02:41:17.524Z,14.36
2017-04-14T02:42:27.864Z,14.28
2017-04-14T02:43:37.893Z,14.36
2017-04-14T02:44:48.290Z,14.36
2017-04-14T02:45:58.665Z,14.33
2017-04-14T02:47:08.995Z,14.38
2017-04-14T02:48:19.006Z,14.24
2017-04-14T02:49:29.351Z,14.36
2017-04-14T02:50:39.687Z,14.36
2017-04-14T02:51:50.028Z,14.33
2017-04-14T02:53:00.041Z,14.28
2017-04-14T02:54:10.367Z,14.24
2017-04-14T02:55:20.409Z,14.31
2017-04-14T02:56:30.421Z,14.27
2017-04-14T02:57:40.741Z,14.31
2017-04-14T02:58:50.754Z,14.34
2017-04-14T03:00:01.071Z,14.27
2017-04-14T03:01:11.439Z,14.39
2017-04-14T03:33:09.510Z,11.39
2017-04-14T03:34:19.836Z,11.39
2017-04-14T03:35:30.163Z,11.42
2017-04-14T03:36:40.159Z,11.38
2017-04-14T03:37:50.492Z,11.48
2017-04-14T03:39:00.509Z,11.52
2017-04-14T03:40:10.520Z,11.7
2017-04-14T03:41:20.867Z,11.75
2017-04-14T03:42:31.195Z,11.89
2017-04-14T03:43:40.905Z,12.16
2017-04-14T03:44:51.233Z,12.22
2017-04-14T03:46:00.940Z,12.38
2017-04-14T03:47:10.966Z,12.55
2017-04-14T03:48:21.303Z,12.58
2017-04-14T03:49:31.328Z,12.84
2017-04-14T03:50:41.666Z,12.89
2017-04-14T03:51:51.682Z,13.07
2017-04-14T03:53:02.011Z,13.2
2017-04-14T03:54:12.345Z,13.39
2017-04-14T03:55:22.669Z,13.45
2017-04-14T03:56:33.289Z,13.5
2017-04-14T03:57:43.624Z,13.51
2017-04-14T03:58:53.961Z,13.54
2017-04-14T04:00:04.292Z,13.68
2017-04-14T04:01:14.638Z,13.73
2017-04-14T04:02:24.971Z,13.84
2017-04-14T04:03:34.689Z,13.84
2017-04-14T04:04:44.407Z,14.01
2017-04-14T04:05:54.745Z,14.09
2017-04-14T04:07:05.089Z,14.05
2017-04-14T04:08:15.124Z,14.06
2017-04-14T04:09:24.837Z,14.06
2017-04-14T04:10:34.870Z,14.15
2017-04-14T04:11:45.204Z,14.11
2017-04-14T04:12:55.554Z,14.24
2017-04-14T04:14:05.610Z,14.26
2017-04-14T04:15:15.625Z,14.23
2017-04-14T04:16:25.651Z,14.34
2017-04-14T04:17:35.663Z,14.38
2017-04-14T04:18:45.683Z,14.44
2017-04-14T04:19:56.050Z,14.51
2017-04-14T04:21:06.080Z,14.51
2017-04-14T04:22:16.422Z,14.56
2017-04-14T04:23:26.136Z,14.52
2017-04-14T04:24:36.173Z,14.49
2017-04-14T04:25:46.184Z,14.46
2017-04-14T04:26:56.516Z,14.51
2017-04-14T04:28:06.548Z,14.49
2017-04-14T04:29:16.874Z,14.59
2017-04-14T04:30:26.890Z,14.51
2017-04-14T04:31:36.901Z,14.56
2017-04-14T04:32:46.921Z,14.51
2017-04-14T04:33:57.247Z,14.57
2017-04-14T04:35:07.603Z,14.59
2017-04-14T04:36:17.942Z,14.59
2017-04-14T04:37:27.961Z,14.59
2017-04-14T04:38:38.292Z,14.74
2017-04-14T04:39:48.314Z,14.67
2017-04-14T04:40:58.361Z,14.64
2017-04-14T04:42:08.732Z,14.63
2017-04-14T04:43:19.064Z,14.66
2017-04-14T04:44:28.769Z,14.69
2017-04-14T04:45:38.479Z,14.6
2017-04-14T04:46:48.826Z,14.57
2017-04-14T04:47:59.156Z,14.64
2017-04-14T04:49:09.498Z,14.64
2017-04-14T04:50:19.849Z,14.64
2017-04-14T04:51:30.168Z,14.63
2017-04-14T04:52:40.498Z,14.69
2017-04-14T04:53:50.528Z,14.8
2017-04-14T04:55:00.620Z,14.71
2017-04-14T04:56:10.983Z,14.87
2017-04-14T04:57:21.320Z,14.94
2017-04-14T04:58:31.678Z,14.93
2017-04-14T04:59:42.019Z,14.86
2017-04-14T05:00:52.397Z,14.85
2017-04-14T05:02:02.426Z,14.89
2017-04-14T05:03:12.776Z,14.94
2017-04-14T05:04:23.118Z,14.85
2017-04-14T05:05:33.137Z,14.98
2017-04-14T05:06:43.485Z,15.07
2017-04-14T05:07:53.821Z,15.12
2017-04-14T05:09:03.557Z,15.2
2017-04-14T05:10:13.289Z,15.19
2017-04-14T05:11:23.613Z,15.31
2017-04-14T05:12:33.946Z,15.37
2017-04-14T05:13:44.279Z,15.47
2017-04-14T05:14:54.592Z,15.62
2017-04-14T05:16:04.932Z,15.44
2017-04-14T05:17:15.279Z,15.52
2017-04-14T05:18:25.015Z,15.62
2017-04-14T05:19:35.338Z,15.73
2017-04-14T05:20:45.401Z,15.78
2017-04-14T05:21:55.745Z,15.8
2017-04-14T05:23:06.094Z,15.84
2017-04-14T05:24:16.175Z,15.84
2017-04-14T05:25:26.507Z,15.98
2017-04-14T05:26:36.837Z,16.06
2017-04-14T05:27:46.591Z,16.18
2017-04-14T05:28:56.991Z,16.26
2017-04-14T05:30:07.017Z,16.25
2017-04-14T05:31:17.030Z,16.26
2017-04-14T05:32:27.366Z,16.26
2017-04-14T05:33:37.382Z,16.21
2017-04-14T05:34:47.726Z,16.27
2017-04-14T05:35:58.062Z,16.25
2017-04-14T05:37:07.778Z,16.25
2017-04-14T05:38:18.120Z,16.26
2017-04-14T05:39:28.128Z,16.26
2017-04-14T05:40:38.149Z,16.26
2017-04-14T05:41:48.490Z,16.27
2017-04-14T05:42:58.517Z,16.21
2017-04-14T05:44:08.244Z,16.11
2017-04-14T05:45:18.587Z,15.96
2017-04-14T05:46:28.611Z,16
2017-04-14T05:47:38.943Z,16.06
2017-04-14T05:48:49.290Z,16.1
2017-04-14T05:49:59.692Z,16.18
2017-04-14T05:51:09.720Z,16.29
2017-04-14T05:52:20.056Z,16.34
2017-04-14T05:53:30.395Z,16.42
2017-04-14T05:54:40.415Z,16.39
2017-04-14T05:55:50.751Z,16.47
2017-04-14T05:57:01.078Z,16.45
2017-04-14T05:58:10.786Z,16.42
2017-04-14T05:59:21.122Z,16.57
2017-04-14T06:00:31.450Z,16.58
2017-04-14T06:01:41.480Z,16.66
2017-04-14T06:02:51.821Z,16.67
2017-04-14T06:04:02.195Z,16.85
2017-04-14T06:05:12.578Z,16.88
2017-04-14T06:06:22.944Z,16.95
2017-04-14T06:07:32.960Z,17.09
2017-04-14T06:08:43.302Z,17.09
2017-04-14T06:09:53.633Z,17.22
2017-04-14T06:11:03.965Z,17.38
2017-04-14T06:12:14.303Z,17.32
2017-04-14T06:13:24.643Z,17.36
2017-04-14T06:14:34.974Z,17.43
2017-04-14T06:15:45.311Z,17.55
2017-04-14T06:16:55.624Z,17.74
2017-04-14T06:18:05.333Z,17.66
2017-04-14T06:19:15.676Z,17.76
2017-04-14T06:20:26.005Z,17.79
2017-04-14T06:21:36.337Z,17.76
2017-04-14T06:22:46.678Z,17.88
2017-04-14T06:23:56.721Z,17.81
2017-04-14T06:25:06.764Z,17.86
2017-04-14T06:26:17.098Z,17.88
2017-04-14T06:27:27.116Z,17.96
2017-04-14T06:28:37.152Z,18.01
2017-04-14T06:29:47.484Z,17.96
2017-04-14T06:30:57.818Z,17.99
2017-04-14T06:32:08.160Z,17.86
2017-04-14T06:33:18.193Z,17.92
2017-04-14T06:34:28.238Z,18.08
2017-04-14T06:35:38.254Z,18.2
2017-04-14T06:36:48.581Z,18.47
2017-04-14T06:37:58.653Z,18.68
2017-04-14T06:39:08.680Z,18.87
2017-04-14T06:40:19.020Z,18.94
2017-04-14T06:41:29.380Z,19.27
2017-04-14T06:42:39.712Z,19.45
2017-04-14T06:43:50.074Z,19.64
2017-04-14T06:45:00.104Z,19.78
2017-04-14T06:46:10.436Z,19.98
2017-04-14T06:47:20.779Z,20.08
2017-04-14T06:48:31.114Z,20.2
2017-04-14T06:49:41.145Z,20.44
2017-04-14T06:50:51.497Z,20.58
2017-04-14T06:52:01.825Z,20.74
2017-04-14T06:53:12.183Z,20.61
2017-04-14T06:54:22.517Z,20.44
2017-04-14T06:55:32.859Z,20.35
2017-04-14T06:56:42.770Z,20.46
2017-04-14T06:57:52.488Z,20.54
2017-04-14T06:59:02.884Z,20.6
2017-04-14T07:00:12.916Z,20.6
2017-04-14T07:01:22.960Z,20.53
2017-04-14T07:02:32.999Z,20.4
2017-04-14T07:03:43.030Z,20.6
2017-04-14T07:04:53.043Z,20.66
2017-04-14T07:06:03.067Z,20.66
2017-04-14T07:07:13.387Z,20.81
2017-04-14T07:08:23.415Z,20.9
2017-04-14T07:09:33.436Z,21.23
2017-04-14T07:10:43.453Z,21.51
2017-04-14T07:11:53.482Z,21.71
2017-04-14T07:13:03.196Z,21.94
2017-04-14T07:14:13.601Z,22.2
2017-04-14T07:15:23.939Z,22.26
2017-04-14T07:16:33.969Z,22.18
2017-04-14T07:17:44.318Z,22.18
2017-04-14T07:18:54.355Z,21.94
2017-04-14T07:20:04.384Z,21.93
2017-04-14T07:21:14.723Z,21.82
2017-04-14T07:22:24.759Z,21.86
2017-04-14T07:23:34.799Z,21.83
2017-04-14T07:24:45.162Z,21.93
2017-04-14T07:25:55.540Z,21.94
2017-04-14T07:27:05.595Z,22.02
2017-04-14T07:28:15.306Z,21.94
2017-04-14T07:29:25.313Z,22.11
2017-04-14T07:30:35.656Z,22.18
2017-04-14T07:31:45.688Z,22.45
2017-04-14T07:32:56.252Z,22.55
2017-04-14T07:34:06.634Z,22.63
2017-04-14T07:35:16.974Z,22.54
2017-04-14T07:36:27.309Z,22.63
2017-04-14T07:37:37.632Z,22.61
2017-04-14T07:38:47.658Z,22.57
2017-04-14T07:39:57.688Z,22.49
2017-04-14T07:41:08.032Z,22.38
2017-04-14T07:42:18.363Z,22.38
2017-04-14T07:43:28.071Z,22.49
2017-04-14T07:44:38.418Z,22.57
2017-04-14T07:45:48.768Z,22.7
2017-04-14T07:46:58.166Z,22.92
2017-04-14T07:48:08.193Z,22.92
2017-04-14T07:49:18.534Z,22.89
2017-04-14T07:50:28.893Z,22.88
2017-04-14T07:51:39.241Z,22.81
2017-04-14T07:52:48.948Z,22.81
2017-04-14T07:53:59.292Z,22.88
2017-04-14T07:55:09.312Z,22.91
2017-04-14T07:56:19.673Z,23.01
2017-04-14T07:57:30.007Z,23.06
2017-04-14T07:58:40.352Z,23.03
2017-04-14T07:59:50.726Z,23.16
2017-04-14T08:01:00.751Z,23.16
2017-04-14T08:02:10.786Z,23.16
2017-04-14T08:03:21.145Z,23.21
2017-04-14T08:04:31.489Z,23.15
2017-04-14T08:05:41.833Z,22.97
2017-04-14T08:06:52.195Z,22.88
2017-04-14T08:08:02.235Z,22.7
2017-04-14T08:09:12.597Z,22.54
2017-04-14T08:10:22.939Z,22.51
2017-04-14T08:11:32.957Z,22.63
2017-04-14T08:12:43.302Z,22.6
2017-04-14T08:13:53.632Z,22.71
2017-04-14T08:15:03.977Z,22.66
2017-04-14T08:16:14.394Z,22.69
2017-04-14T08:17:24.429Z,22.6
2017-04-14T08:18:34.467Z,22.51
2017-04-14T08:19:44.500Z,22.49
2017-04-14T08:20:54.845Z,22.29
2017-04-14T08:22:04.881Z,22.29
2017-04-14T08:23:14.915Z,21.99
2017-04-14T08:24:25.287Z,21.82
2017-04-14T08:25:35.632Z,21.68
2017-04-14T08:26:45.664Z,21.67
2017-04-14T08:27:56.013Z,21.55
2017-04-14T08:29:06.065Z,21.62
2017-04-14T08:30:16.400Z,21.83
2017-04-14T08:31:26.787Z,21.94
2017-04-14T08:32:37.130Z,22.15
2017-04-14T08:33:47.472Z,22.16
2017-04-14T08:34:57.820Z,22.26
2017-04-14T08:36:08.172Z,22.44
2017-04-14T08:37:18.521Z,22.52
2017-04-14T08:38:28.560Z,22.64
2017-04-14T08:39:38.912Z,22.7
2017-04-14T08:40:48.945Z,22.76
2017-04-14T08:41:59.278Z,22.81
2017-04-14T08:43:09.628Z,22.73
2017-04-14T08:44:19.976Z,22.7
2017-04-14T08:45:30.289Z,22.39
2017-04-14T08:46:40.315Z,22.34
2017-04-14T08:47:50.900Z,22.18
2017-04-14T08:49:01.253Z,22.12
2017-04-14T08:50:11.595Z,21.96
2017-04-14T08:51:21.925Z,21.94
2017-04-14T08:52:32.342Z,21.86
2017-04-14T08:53:42.690Z,21.82
2017-04-14T08:54:53.045Z,21.86
2017-04-14T08:56:03.084Z,21.73
2017-04-14T08:57:13.424Z,21.71
2017-04-14T08:58:23.767Z,21.76
2017-04-14T08:59:34.102Z,21.8
2017-04-14T09:00:44.450Z,21.68
2017-04-14T09:01:54.165Z,21.56
2017-04-14T09:03:04.549Z,21.59
2017-04-14T09:04:14.576Z,21.62
2017-04-14T09:05:24.929Z,21.55
2017-04-14T09:06:35.272Z,21.61
2017-04-14T09:07:45.296Z,21.55
2017-04-14T09:08:55.628Z,21.46
2017-04-14T09:10:05.969Z,21.53
2017-04-14T09:11:15.986Z,21.49
2017-04-14T09:12:26.321Z,21.55
2017-04-14T09:13:36.364Z,21.59
2017-04-14T09:14:46.717Z,21.56
2017-04-14T09:15:57.051Z,21.73
2017-04-14T09:17:07.399Z,21.74
2017-04-14T09:18:17.766Z,21.8
2017-04-14T09:19:27.794Z,21.94
2017-04-14T09:20:38.190Z,22.14
2017-04-14T09:21:48.542Z,22.02
2017-04-14T09:22:58.882Z,22
2017-04-14T09:24:08.925Z,22.14
2017-04-14T09:25:18.967Z,22.29
2017-04-14T09:26:29.308Z,22.39
2017-04-14T09:27:39.647Z,22.22
2017-04-14T09:28:49.987Z,22.24
2017-04-14T09:30:00.321Z,22.23
2017-04-14T09:31:10.334Z,22.29
2017-04-14T09:32:20.664Z,22.38
2017-04-14T09:33:31.004Z,22.31
2017-04-14T09:34:41.018Z,22.2
2017-04-14T09:35:50.739Z,22.2
2017-04-14T09:37:00.783Z,21.96
2017-04-14T09:38:11.111Z,21.73
2017-04-14T09:39:21.496Z,21.67
2017-04-14T09:40:31.898Z,21.8
2017-04-14T09:41:41.939Z,21.7
2017-04-14T09:42:52.288Z,21.61
2017-04-14T09:44:02.648Z,21.51
2017-04-14T09:45:12.366Z,21.59
2017-04-14T09:46:22.747Z,21.56
2017-04-14T09:47:32.772Z,21.64
2017-04-14T09:48:43.123Z,21.67
2017-04-14T09:49:53.159Z,21.64
2017-04-14T09:51:03.497Z,21.83
2017-04-14T09:52:13.829Z,21.85
2017-04-14T09:53:24.181Z,21.86
2017-04-14T09:54:34.522Z,21.85
2017-04-14T09:55:44.855Z,21.83
2017-04-14T09:56:55.191Z,21.96
2017-04-14T09:58:05.214Z,21.93
2017-04-14T09:59:15.565Z,21.94
2017-04-14T10:00:25.286Z,21.96
2017-04-14T10:01:35.635Z,22.09
2017-04-14T10:02:46.221Z,22.2
2017-04-14T10:03:56.252Z,22.24
2017-04-14T10:05:06.288Z,22.26
2017-04-14T10:06:16.653Z,22.23
2017-04-14T10:07:26.987Z,22.52
2017-04-14T10:08:37.025Z,22.54
2017-04-14T10:09:47.360Z,22.6
2017-04-14T10:10:57.707Z,22.79
2017-04-14T10:12:07.729Z,22.91
2017-04-14T10:13:17.762Z,23.01
2017-04-14T10:14:28.103Z,23.09
2017-04-14T10:15:37.823Z,23.22
2017-04-14T10:16:48.172Z,23.4
2017-04-14T10:17:58.511Z,23.55
2017-04-14T10:19:08.853Z,23.59
2017-04-14T10:20:18.890Z,23.56
2017-04-14T10:21:29.239Z,23.37
2017-04-14T10:22:39.585Z,23.18
2017-04-14T10:23:49.303Z,22.91
2017-04-14T10:24:59.654Z,22.71
2017-04-14T10:26:09.370Z,22.51
2017-04-14T10:27:19.703Z,22.34
2017-04-14T10:28:30.050Z,22.36
2017-04-14T10:29:40.085Z,22.26
2017-04-14T10:30:50.448Z,22.3
2017-04-14T10:32:00.393Z,22.41
2017-04-14T10:33:10.750Z,22.61
2017-04-14T10:34:21.087Z,23.04
2017-04-14T10:35:31.432Z,23.56
2017-04-14T10:36:41.771Z,23.96
2017-04-14T10:37:52.129Z,24.3
2017-04-14T10:39:02.485Z,24.71
2017-04-14T10:40:12.831Z,24.85
2017-04-14T10:41:23.174Z,24.94
2017-04-14T10:42:33.199Z,25.11
2017-04-14T10:43:43.547Z,25.22
2017-04-14T10:44:53.902Z,25.15
2017-04-14T10:46:04.259Z,25.19
2017-04-14T10:47:14.291Z,25.19
2017-04-14T10:48:24.642Z,25.17
2017-04-14T10:49:34.700Z,25
2017-04-14T10:50:44.715Z,24.94
2017-04-14T10:51:55.059Z,24.86
2017-04-14T10:53:05.105Z,24.89
2017-04-14T10:54:15.461Z,24.83
2017-04-14T10:55:25.808Z,24.78
2017-04-14T10:56:35.841Z,24.77
2017-04-14T10:57:45.917Z,24.64
2017-04-14T10:58:56.259Z,24.51
2017-04-14T11:00:06.294Z,24.34
2017-04-14T11:01:16.642Z,24.22
2017-04-14T11:02:26.675Z,24.02
2017-04-14T11:03:37.016Z,23.84
2017-04-14T11:04:47.066Z,23.63
2017-04-14T11:05:57.425Z,23.53
2017-04-14T11:07:07.760Z,23.59
2017-04-14T11:08:18.104Z,23.47
2017-04-14T11:09:28.140Z,23.24
2017-04-14T11:10:37.872Z,23.03
2017-04-14T11:11:48.222Z,22.91
2017-04-14T11:12:58.560Z,22.75
2017-04-14T11:14:08.905Z,22.63
2017-04-14T11:15:19.234Z,22.57
2017-04-14T11:16:29.255Z,22.52
2017-04-14T11:17:39.289Z,22.34
2017-04-14T11:18:49.323Z,22.38
2017-04-14T11:19:59.369Z,22.34
2017-04-14T11:21:09.392Z,22.48
2017-04-14T11:22:19.740Z,22.7
2017-04-14T11:23:30.084Z,23.06
2017-04-14T11:24:40.433Z,23.64
2017-04-14T11:25:50.787Z,23.97
2017-04-14T11:27:01.124Z,24
2017-04-14T11:28:11.470Z,23.97
2017-04-14T11:29:21.823Z,23.81
2017-04-14T11:30:32.174Z,23.78
2017-04-14T11:31:42.182Z,23.82
2017-04-14T11:32:52.555Z,23.9
2017-04-14T11:34:02.589Z,24.08
2017-04-14T11:35:12.932Z,24.12
2017-04-14T11:36:22.999Z,24.32
2017-04-14T11:37:33.336Z,24.33
2017-04-14T11:38:43.762Z,24.32
2017-04-14T11:39:53.804Z,24.42
2017-04-14T11:41:03.822Z,24.49
2017-04-14T11:42:14.171Z,24.56
2017-04-14T11:43:24.508Z,24.56
2017-04-14T11:44:34.860Z,24.7
2017-04-14T11:45:44.899Z,24.66
2017-04-14T11:46:55.234Z,24.59
2017-04-14T11:48:05.271Z,24.54
2017-04-14T11:49:15.306Z,24.59
2017-04-14T11:50:25.653Z,24.55
2017-04-14T11:51:35.987Z,24.64
2017-04-14T11:52:46.013Z,24.64
2017-04-14T11:53:56.368Z,24.59
2017-04-14T11:55:06.396Z,24.51
2017-04-14T11:56:16.739Z,24.3
2017-04-14T11:57:26.764Z,24.22
2017-04-14T11:58:36.783Z,24.14
2017-04-14T11:59:47.119Z,24.22
2017-04-14T12:00:57.494Z,24.33
2017-04-14T12:02:07.848Z,24.34
2017-04-14T12:03:18.195Z,24.46
2017-04-14T12:04:28.542Z,24.4
2017-04-14T12:05:38.874Z,24.44
2017-04-14T12:06:49.261Z,24.26
2017-04-14T12:07:59.611Z,24.27
2017-04-14T12:09:09.951Z,24.18
2017-04-14T12:10:19.989Z,24.03
2017-04-14T12:11:30.335Z,23.81
2017-04-14T12:12:40.376Z,23.72
2017-04-14T12:13:50.725Z,23.6
2017-04-14T12:15:00.455Z,23.56
2017-04-14T12:16:10.827Z,23.4
2017-04-14T12:17:21.170Z,23.21
2017-04-14T12:18:31.518Z,23.19
2017-04-14T12:19:41.545Z,23.09
2017-04-14T12:20:51.880Z,23.1
2017-04-14T12:22:02.216Z,22.96
2017-04-14T12:23:11.622Z,23.12
2017-04-14T12:24:21.975Z,23.15
2017-04-14T12:25:32.031Z,23.24
2017-04-14T12:26:42.050Z,23.34
2017-04-14T12:27:52.392Z,23.4
2017-04-14T12:29:02.421Z,23.38
2017-04-14T12:30:12.772Z,23.41
2017-04-14T12:31:23.130Z,23.4
2017-04-14T12:32:33.162Z,23.37
2017-04-14T12:33:43.200Z,23.37
2017-04-14T12:34:53.549Z,23.25
2017-04-14T12:36:03.893Z,23.25
2017-04-14T12:37:13.944Z,23.18
2017-04-14T12:38:23.684Z,23.09
2017-04-14T12:39:33.725Z,23.06
2017-04-14T12:40:44.068Z,22.91
2017-04-14T12:41:54.420Z,22.96
2017-04-14T12:43:04.787Z,23.03
2017-04-14T12:44:15.128Z,23.1
2017-04-14T12:45:25.146Z,23.16
2017-04-14T12:46:35.537Z,23.16
2017-04-14T12:47:45.873Z,23.16
2017-04-14T12:48:55.897Z,23.12
2017-04-14T12:50:06.253Z,23.15
2017-04-14T12:51:16.591Z,22.92
2017-04-14T12:52:26.937Z,22.88
2017-04-14T12:53:37.274Z,22.7
2017-04-14T12:54:47.292Z,22.51
2017-04-14T12:55:57.325Z,22.27
2017-04-14T12:57:07.394Z,21.97
2017-04-14T12:58:17.128Z,21.8
2017-04-14T12:59:27.474Z,21.62
2017-04-14T13:00:37.804Z,21.48
2017-04-14T13:01:48.144Z,21.31
2017-04-14T13:02:58.168Z,21.18
2017-04-14T13:04:08.204Z,21.11
2017-04-14T13:05:18.556Z,20.94
2017-04-14T13:06:28.602Z,20.82
2017-04-14T13:07:38.940Z,20.74
2017-04-14T13:08:49.280Z,20.6
2017-04-14T13:09:59.303Z,20.44
2017-04-14T13:11:09.334Z,20.4
2017-04-14T13:12:19.385Z,20.23
2017-04-14T13:13:29.756Z,20.25
2017-04-14T13:14:39.791Z,20.1
2017-04-14T13:15:49.827Z,20.1
2017-04-14T13:16:59.893Z,20.02
2017-04-14T13:18:10.230Z,20
2017-04-14T13:19:20.576Z,19.9
2017-04-14T13:20:30.936Z,19.95
2017-04-14T13:21:41.265Z,19.86
2017-04-14T13:22:51.621Z,19.74
2017-04-14T13:24:01.653Z,19.71
2017-04-14T13:25:11.688Z,19.79
2017-04-14T13:26:22.066Z,19.82
2017-04-14T13:27:32.442Z,19.75
2017-04-14T13:28:42.792Z,19.63
2017-04-14T13:29:52.847Z,19.61
2017-04-14T13:31:02.561Z,19.63
2017-04-14T13:32:12.600Z,19.55
2017-04-14T13:33:22.930Z,19.63
2017-04-14T13:34:32.954Z,19.55
2017-04-14T13:35:43.301Z,19.52
2017-04-14T13:36:53.661Z,19.63
2017-04-14T13:38:04.001Z,19.68
2017-04-14T13:39:14.029Z,19.68
2017-04-14T13:40:24.422Z,19.57
2017-04-14T13:41:34.793Z,19.53
2017-04-14T13:42:45.162Z,19.52
2017-04-14T13:43:55.503Z,19.56
2017-04-14T13:45:05.872Z,19.53
2017-04-14T13:46:16.211Z,19.56
2017-04-14T13:47:26.551Z,19.53
2017-04-14T13:48:36.924Z,19.52
2017-04-14T13:49:46.964Z,19.55
2017-04-14T13:50:57.008Z,19.49
2017-04-14T13:52:07.355Z,19.49
2017-04-14T13:53:17.147Z,19.52
2017-04-14T13:54:27.534Z,19.55
2017-04-14T13:55:37.259Z,19.56
2017-04-14T13:56:47.694Z,19.57
2017-04-14T13:58:00.851Z,19.6
2017-04-14T13:59:10.885Z,19.63
2017-04-14T14:00:21.226Z,19.65
2017-04-14T14:01:31.296Z,19.74
2017-04-14T14:02:41.670Z,19.86
2017-04-14T14:03:52.027Z,20.01
2017-04-14T14:05:02.133Z,20.07
2017-04-14T14:06:11.857Z,20.22
2017-04-14T14:07:22.201Z,20.26
2017-04-14T14:08:32.560Z,20.38
2017-04-14T14:09:42.935Z,20.46
2017-04-14T14:10:53.291Z,20.53
2017-04-14T14:12:03.642Z,20.46
2017-04-14T14:13:13.991Z,20.72
2017-04-14T14:14:24.592Z,20.68
2017-04-14T14:15:34.920Z,20.75
2017-04-14T14:16:45.246Z,20.76
2017-04-14T14:17:55.582Z,20.83
2017-04-14T14:19:05.938Z,20.94
2017-04-14T14:20:16.286Z,21.04
2017-04-14T14:21:26.641Z,21.16
2017-04-14T14:22:36.990Z,21.21
2017-04-14T14:23:47.339Z,21.31
2017-04-14T14:24:57.692Z,21.49
2017-04-14T14:26:07.730Z,21.53
2017-04-14T14:27:18.084Z,21.52
2017-04-14T14:28:28.427Z,21.45
2017-04-14T14:29:38.156Z,21.4
2017-04-14T14:30:47.879Z,21.37
2017-04-14T14:31:58.231Z,21.3
2017-04-14T14:33:08.599Z,21.16
2017-04-14T14:34:18.310Z,21.09
2017-04-14T14:35:28.667Z,21.03
2017-04-14T14:36:38.690Z,20.78
2017-04-14T14:37:48.737Z,20.71
2017-04-14T14:38:58.462Z,20.49
2017-04-14T14:40:08.486Z,20.44
2017-04-14T14:41:18.835Z,20.35
2017-04-14T14:42:28.873Z,20.23
2017-04-14T14:43:38.895Z,20.12
2017-04-14T14:44:49.236Z,20
2017-04-14T14:45:59.258Z,19.9
2017-04-14T14:47:09.601Z,19.74
2017-04-14T14:48:19.654Z,19.74
2017-04-14T14:49:29.980Z,19.64
2017-04-14T14:50:40.312Z,19.57
2017-04-14T14:51:50.381Z,19.55
2017-04-14T14:53:00.415Z,19.55
2017-04-14T14:54:10.440Z,19.5
2017-04-14T14:55:20.506Z,19.55
2017-04-14T14:56:30.535Z,19.42
2017-04-14T14:57:40.246Z,19.47
2017-04-14T14:58:49.978Z,19.46
2017-04-14T15:00:00.033Z,19.42
2017-04-14T15:01:09.767Z,19.34
2017-04-14T15:02:19.491Z,19.27
2017-04-14T15:03:29.517Z,19.3
2017-04-14T15:04:39.866Z,19.24
2017-04-14T15:05:50.213Z,19.24
2017-04-14T15:07:00.561Z,19.2
2017-04-14T15:08:10.957Z,19.3
2017-04-14T15:09:20.983Z,19.3
2017-04-14T15:10:30.724Z,19.28
2017-04-14T15:11:41.088Z,19.34
2017-04-14T15:12:51.448Z,19.31
2017-04-14T15:14:01.796Z,19.34
2017-04-14T15:15:11.520Z,19.32
2017-04-14T15:16:21.868Z,19.37
2017-04-14T15:17:32.220Z,19.42
2017-04-14T15:18:42.561Z,19.43
2017-04-14T15:19:52.595Z,19.4
2017-04-14T15:21:02.956Z,19.37
2017-04-14T15:22:13.033Z,19.45
2017-04-14T15:23:23.372Z,19.46
2017-04-14T15:24:33.415Z,19.49
2017-04-14T15:25:43.802Z,19.55
2017-04-14T15:26:54.134Z,19.52
2017-04-14T15:28:04.492Z,19.46
2017-04-14T15:29:14.840Z,19.52
2017-04-14T15:30:25.182Z,19.42
2017-04-14T15:31:35.547Z,19.4
2017-04-14T15:32:45.891Z,19.3
2017-04-14T15:33:56.250Z,19.28
2017-04-14T15:35:06.335Z,19.28
2017-04-14T15:36:16.411Z,19.17
2017-04-14T15:37:26.734Z,19.12
2017-04-14T15:38:36.781Z,19